Weather at Dounis Airfield

Public forecast

Using degrees Celsius for public forecast. Weather courtesy of forecast.io.

Closest aviation weather report (METAR) to Dounis Airfield

Closest report is Elefsis Airport, 12.2 nm (22.5 km) ENE. Retrieved 2021/06/24 17:50 UTC (14 minutes ago):

LGEL 241750Z 18003KT CAVOK 30/19 Q1014

Closest aviation forecast (TAF) to Dounis Airfield

Closest forecast is Elefsis Airport, 12.2 nm (22.5 km) ENE. Retrieved 2021/06/24 18:16 UTC (0 seconds ago):

TAF LGEL 241700Z 2418/2518 VRB05KT 9999 FEW025 BECMG 2507/2509 18010KT BECMG 2516/2518 VRB05KT